createdAt,value
2022-10-19T00:01:26.019Z,100.00
2022-10-19T00:03:53.913Z,100.00
2022-10-19T00:06:27.846Z,100.00
2022-10-19T00:08:55.647Z,100.00
2022-10-19T00:11:23.683Z,100.00
2022-10-19T00:13:50.876Z,100.00
2022-10-19T00:16:17.877Z,100.00
2022-10-19T00:18:45.016Z,100.00
2022-10-19T00:21:13.270Z,100.00
2022-10-19T00:23:40.047Z,100.00
2022-10-19T00:26:06.521Z,100.00
2022-10-19T00:28:33.084Z,100.00
2022-10-19T00:31:06.743Z,100.00
2022-10-19T00:33:33.380Z,100.00
2022-10-19T00:35:59.825Z,100.00
2022-10-19T00:38:26.283Z,100.00
2022-10-19T00:40:52.773Z,100.00
2022-10-19T00:43:26.918Z,100.00
2022-10-19T00:45:53.580Z,100.00
2022-10-19T00:48:25.774Z,100.00
2022-10-19T00:50:54.413Z,100.00
2022-10-19T00:53:21.182Z,100.00
2022-10-19T00:55:47.686Z,100.00
2022-10-19T00:58:14.219Z,100.00
2022-10-19T01:00:40.765Z,100.00
2022-10-19T01:03:08.594Z,100.00
2022-10-19T01:05:35.241Z,100.00
2022-10-19T01:08:01.698Z,100.00
2022-10-19T01:10:37.293Z,100.00
2022-10-19T01:13:11.953Z,100.00
2022-10-19T01:15:50.421Z,100.00
2022-10-19T01:18:34.997Z,100.00
2022-10-19T01:21:21.972Z,100.00
2022-10-19T01:23:51.410Z,100.00
2022-10-19T01:26:17.817Z,100.00
2022-10-19T01:28:50.316Z,100.00
2022-10-19T01:31:16.844Z,100.00
2022-10-19T01:33:49.378Z,100.00
2022-10-19T01:36:19.294Z,100.00
2022-10-19T01:38:58.113Z,100.00
2022-10-19T01:41:24.504Z,100.00
2022-10-19T01:44:11.799Z,100.00
2022-10-19T01:46:39.341Z,100.00
2022-10-19T01:49:13.682Z,100.00
2022-10-19T01:51:42.880Z,100.00
2022-10-19T01:54:11.803Z,100.00
2022-10-19T01:56:42.107Z,100.00
2022-10-19T01:59:10.403Z,100.00
2022-10-19T02:01:39.038Z,100.00
2022-10-19T02:04:05.635Z,100.00
2022-10-19T02:06:32.695Z,100.00
2022-10-19T02:08:59.129Z,100.00
2022-10-19T02:11:25.697Z,100.00
2022-10-19T02:13:56.553Z,100.00
2022-10-19T02:16:27.961Z,100.00
2022-10-19T02:18:55.178Z,100.00
2022-10-19T02:21:21.703Z,100.00
2022-10-19T02:23:49.430Z,100.00
2022-10-19T02:26:18.656Z,100.00
2022-10-19T02:28:45.306Z,100.00
2022-10-19T02:31:11.922Z,100.00
2022-10-19T02:33:38.689Z,100.00
2022-10-19T02:36:05.510Z,100.00
2022-10-19T02:38:32.001Z,100.00
2022-10-19T02:41:05.016Z,100.00
2022-10-19T02:43:33.878Z,100.00
2022-10-19T02:46:02.655Z,100.00
2022-10-19T02:48:30.767Z,100.00
2022-10-19T02:50:57.181Z,100.00
2022-10-19T02:53:23.629Z,100.00
2022-10-19T02:55:50.689Z,100.00
2022-10-19T02:58:17.239Z,100.00
2022-10-19T03:00:43.787Z,100.00
2022-10-19T03:03:10.646Z,100.00
2022-10-19T03:05:37.214Z,100.00
2022-10-19T03:08:03.771Z,100.00
2022-10-19T03:10:30.178Z,100.00
2022-10-19T03:12:59.830Z,100.00
2022-10-19T03:15:29.072Z,100.00
2022-10-19T03:17:56.539Z,100.00
2022-10-19T03:20:23.127Z,100.00
2022-10-19T03:22:49.780Z,100.00
2022-10-19T03:25:16.508Z,100.00
2022-10-19T03:27:42.962Z,100.00
2022-10-19T03:30:09.624Z,100.00
2022-10-19T03:32:36.114Z,100.00
2022-10-19T03:35:02.517Z,100.00
2022-10-19T03:37:28.926Z,100.00
2022-10-19T03:39:55.349Z,100.00
2022-10-19T03:42:21.781Z,100.00
2022-10-19T03:44:48.240Z,100.00
2022-10-19T03:47:14.655Z,100.00
2022-10-19T03:49:41.899Z,100.00
2022-10-19T03:52:10.239Z,100.00
2022-10-19T03:54:36.820Z,100.00
2022-10-19T03:57:03.353Z,100.00
2022-10-19T03:59:29.837Z,100.00
2022-10-19T04:01:56.262Z,100.00
2022-10-19T04:04:22.702Z,100.00
2022-10-19T04:06:50.034Z,100.00
2022-10-19T04:09:18.168Z,100.00
2022-10-19T04:11:44.662Z,100.00
2022-10-19T04:14:22.750Z,100.00
2022-10-19T04:16:59.929Z,100.00
2022-10-19T04:19:26.349Z,100.00
2022-10-19T04:21:52.806Z,100.00
2022-10-19T04:24:19.366Z,100.00
2022-10-19T04:26:52.914Z,100.00
2022-10-19T04:29:21.941Z,100.00
2022-10-19T04:31:51.035Z,100.00
2022-10-19T04:34:17.474Z,100.00
2022-10-19T04:36:43.909Z,100.00
2022-10-19T04:39:10.452Z,100.00
2022-10-19T04:41:37.270Z,100.00
2022-10-19T04:44:04.823Z,100.00
2022-10-19T04:46:31.294Z,100.00
2022-10-19T04:48:58.142Z,100.00
2022-10-19T04:51:25.003Z,100.00
2022-10-19T04:53:52.476Z,100.00
2022-10-19T04:56:22.072Z,100.00
2022-10-19T04:58:49.113Z,100.00
2022-10-19T05:01:20.188Z,100.00
2022-10-19T05:03:47.184Z,100.00
2022-10-19T05:06:14.994Z,100.00
2022-10-19T05:08:41.910Z,100.00
2022-10-19T05:11:10.030Z,100.00
2022-10-19T05:13:37.028Z,100.00
2022-10-19T05:16:04.596Z,100.00
2022-10-19T05:18:31.097Z,100.00
2022-10-19T05:21:16.289Z,100.00
2022-10-19T05:23:42.757Z,100.00
2022-10-19T05:26:10.527Z,100.00
2022-10-19T05:28:37.061Z,100.00
2022-10-19T05:31:06.654Z,100.00
2022-10-19T05:33:33.201Z,100.00
2022-10-19T05:35:59.659Z,100.00
2022-10-19T05:38:26.110Z,100.00
2022-10-19T05:40:53.676Z,100.00
2022-10-19T05:43:20.270Z,100.00
2022-10-19T05:45:46.674Z,100.00
2022-10-19T05:48:13.113Z,100.00
2022-10-19T05:50:39.498Z,100.00
2022-10-19T05:53:05.988Z,100.00
2022-10-19T05:55:34.248Z,100.00
2022-10-19T05:58:00.687Z,100.00
2022-10-19T06:00:27.299Z,100.00
2022-10-19T06:02:58.289Z,100.00
2022-10-19T06:05:25.673Z,100.00
2022-10-19T06:07:52.067Z,100.00
2022-10-19T06:10:19.364Z,100.00
2022-10-19T06:12:45.807Z,100.00
2022-10-19T06:15:12.233Z,100.00
2022-10-19T06:17:38.769Z,100.00
2022-10-19T06:20:05.425Z,100.00
2022-10-19T06:22:31.953Z,100.00
2022-10-19T06:24:58.409Z,100.00
2022-10-19T06:27:24.996Z,100.00
2022-10-19T06:29:51.414Z,100.00
2022-10-19T06:32:17.957Z,100.00
2022-10-19T06:34:44.349Z,100.00
2022-10-19T06:37:10.773Z,100.00
2022-10-19T06:39:37.257Z,99.53
2022-10-19T06:42:03.746Z,97.96
2022-10-19T06:44:30.168Z,97.20
2022-10-19T06:46:56.597Z,95.92
2022-10-19T06:49:23.057Z,96.23
2022-10-19T06:51:49.474Z,95.71
2022-10-19T06:54:15.906Z,94.89
2022-10-19T06:56:42.416Z,93.09
2022-10-19T06:59:08.975Z,89.67
2022-10-19T07:01:35.409Z,87.33
2022-10-19T07:04:02.676Z,82.78
2022-10-19T07:06:29.103Z,83.20
2022-10-19T07:08:55.533Z,79.61
2022-10-19T07:11:22.620Z,80.88
2022-10-19T07:13:49.287Z,80.81
2022-10-19T07:16:20.581Z,81.58
2022-10-19T07:18:48.254Z,79.33
2022-10-19T07:21:16.019Z,79.97
2022-10-19T07:23:43.238Z,76.79
2022-10-19T07:26:11.978Z,77.48
2022-10-19T07:28:39.506Z,80.69
2022-10-19T07:31:07.284Z,80.72
2022-10-19T07:33:34.033Z,83.83
2022-10-19T07:36:01.534Z,85.38
2022-10-19T07:38:29.782Z,87.48
2022-10-19T07:40:59.949Z,88.27
2022-10-19T07:43:26.342Z,88.66
2022-10-19T07:45:58.598Z,85.56
2022-10-19T07:48:25.058Z,84.17
2022-10-19T07:50:51.499Z,82.84
2022-10-19T07:53:17.935Z,79.06
2022-10-19T07:55:44.370Z,79.69
2022-10-19T07:58:10.786Z,78.47
2022-10-19T08:00:37.279Z,74.18
2022-10-19T08:04:13.648Z,72.44
2022-10-19T08:05:50.267Z,71.31
2022-10-19T08:08:16.698Z,71.16
2022-10-19T08:10:43.339Z,69.38
2022-10-19T08:13:09.778Z,66.38
2022-10-19T08:15:36.378Z,66.09
2022-10-19T08:18:02.804Z,67.66
2022-10-19T08:20:29.280Z,63.99
2022-10-19T08:22:58.829Z,65.95
2022-10-19T08:25:25.781Z,67.10
2022-10-19T08:27:52.584Z,68.57
2022-10-19T08:30:19.114Z,68.36
2022-10-19T08:32:45.584Z,67.94
2022-10-19T08:35:12.086Z,70.12
2022-10-19T08:37:45.309Z,71.77
2022-10-19T08:40:24.668Z,70.74
2022-10-19T08:42:58.052Z,69.66
2022-10-19T08:45:46.203Z,68.63
2022-10-19T08:48:32.997Z,68.53
2022-10-19T08:51:00.023Z,68.49
2022-10-19T08:53:45.256Z,65.67
2022-10-19T08:56:49.475Z,66.51
2022-10-19T08:59:31.785Z,64.78
2022-10-19T09:01:59.932Z,63.06
2022-10-19T09:04:38.201Z,63.89
2022-10-19T09:07:16.570Z,64.76
2022-10-19T09:12:23.801Z,63.59
2022-10-19T09:14:59.327Z,63.35
2022-10-19T09:17:33.740Z,61.96
2022-10-19T09:20:17.617Z,59.77
2022-10-19T09:22:44.637Z,58.35
2022-10-19T09:25:17.490Z,56.22
2022-10-19T09:27:45.748Z,54.83
2022-10-19T09:30:15.170Z,55.28
2022-10-19T09:32:41.909Z,58.59
2022-10-19T09:35:08.472Z,58.65
2022-10-19T09:37:40.262Z,58.73
2022-10-19T09:40:07.165Z,60.17
2022-10-19T09:42:34.715Z,59.11
2022-10-19T09:45:14.623Z,61.06
2022-10-19T09:47:42.847Z,61.95
2022-10-19T09:50:20.249Z,55.97
2022-10-19T09:52:57.050Z,53.58
2022-10-19T09:55:28.572Z,58.30
2022-10-19T09:58:13.484Z,57.89
2022-10-19T10:00:42.757Z,54.55
2022-10-19T10:03:29.475Z,57.53
2022-10-19T10:05:57.232Z,55.40
2022-10-19T10:08:25.943Z,52.19
2022-10-19T10:11:10.876Z,51.06
2022-10-19T10:13:39.205Z,49.20
2022-10-19T10:16:07.447Z,48.15
2022-10-19T10:18:36.371Z,49.17
2022-10-19T10:21:06.784Z,50.08
2022-10-19T10:23:36.314Z,51.75
2022-10-19T10:26:03.491Z,51.49
2022-10-19T10:28:30.698Z,50.08
2022-10-19T10:31:09.335Z,50.03
2022-10-19T10:33:44.628Z,47.15
2022-10-19T10:36:12.496Z,48.36
2022-10-19T10:38:47.003Z,48.90
2022-10-19T10:41:18.063Z,49.37
2022-10-19T10:44:00.941Z,48.35
2022-10-19T10:46:42.525Z,49.73
2022-10-19T10:49:16.841Z,50.42
2022-10-19T10:51:49.239Z,50.48
2022-10-19T10:54:20.088Z,49.30
2022-10-19T10:57:16.821Z,50.09
2022-10-19T10:59:55.650Z,48.36
2022-10-19T11:02:22.191Z,50.26
2022-10-19T11:04:52.404Z,50.92
2022-10-19T11:07:20.549Z,48.50
2022-10-19T11:09:50.981Z,48.37
2022-10-19T11:12:19.182Z,48.30
2022-10-19T11:14:45.606Z,47.90
2022-10-19T11:17:18.222Z,47.37
2022-10-19T11:19:45.296Z,48.00
2022-10-19T11:22:29.686Z,47.28
2022-10-19T11:24:56.073Z,46.96
2022-10-19T11:27:25.526Z,48.64
2022-10-19T11:30:02.363Z,52.03
2022-10-19T11:32:35.749Z,49.81
2022-10-19T11:35:20.879Z,49.10
2022-10-19T11:38:18.854Z,47.40
2022-10-19T11:41:12.847Z,51.01
2022-10-19T11:43:54.338Z,50.52
2022-10-19T11:46:36.158Z,48.83
2022-10-19T11:49:12.266Z,48.42
2022-10-19T11:51:39.276Z,47.12
2022-10-19T11:54:05.782Z,46.14
2022-10-19T11:57:01.625Z,46.67
2022-10-19T11:59:34.186Z,46.85
2022-10-19T12:02:10.638Z,45.69
2022-10-19T12:04:37.127Z,46.78
2022-10-19T12:07:06.314Z,46.05
2022-10-19T12:09:54.290Z,45.66
2022-10-19T12:12:27.598Z,49.14
2022-10-19T12:15:03.206Z,47.48
2022-10-19T12:17:32.267Z,48.05
2022-10-19T12:20:01.504Z,46.02
2022-10-19T12:22:29.432Z,45.08
2022-10-19T12:24:58.273Z,46.82
2022-10-19T12:27:28.189Z,45.71
2022-10-19T12:29:55.089Z,44.67
2022-10-19T12:32:23.745Z,43.31
2022-10-19T12:34:56.332Z,43.20
2022-10-19T12:37:22.726Z,42.41
2022-10-19T12:40:03.278Z,41.88
2022-10-19T12:42:44.993Z,42.09
2022-10-19T12:45:18.464Z,45.03
2022-10-19T12:48:04.854Z,42.91
2022-10-19T12:50:49.331Z,42.33
2022-10-19T12:53:30.843Z,42.97
2022-10-19T12:55:59.286Z,42.05
2022-10-19T12:58:25.879Z,43.85
2022-10-19T13:00:59.637Z,41.39
2022-10-19T13:03:29.966Z,42.42
2022-10-19T13:06:00.927Z,42.11
2022-10-19T13:08:29.367Z,46.45
2022-10-19T13:11:06.443Z,44.01
2022-10-19T13:13:51.455Z,42.42
2022-10-19T13:16:30.086Z,43.83
2022-10-19T13:18:59.697Z,42.89
2022-10-19T13:21:46.129Z,43.78
2022-10-19T13:24:24.497Z,42.42
2022-10-19T13:27:03.143Z,43.65
2022-10-19T13:29:38.918Z,44.47
2022-10-19T13:32:24.387Z,45.30
2022-10-19T13:34:50.847Z,46.07
2022-10-19T13:37:18.545Z,44.75
2022-10-19T13:39:44.951Z,44.57
2022-10-19T13:42:25.623Z,45.13
2022-10-19T13:44:53.246Z,45.66
2022-10-19T13:47:29.557Z,45.49
2022-10-19T13:50:04.323Z,44.93
2022-10-19T13:52:41.685Z,45.36
2022-10-19T13:55:17.016Z,45.69
2022-10-19T13:58:02.900Z,47.07
2022-10-19T14:00:48.118Z,46.41
2022-10-19T14:03:14.579Z,46.59
2022-10-19T14:05:59.348Z,45.94
2022-10-19T14:08:38.122Z,46.27
2022-10-19T14:11:06.110Z,46.48
2022-10-19T14:13:32.608Z,45.86
2022-10-19T14:16:01.439Z,45.09
2022-10-19T14:18:32.072Z,46.37
2022-10-19T14:20:59.819Z,48.23
2022-10-19T14:23:26.207Z,48.60
2022-10-19T14:26:12.856Z,48.82
2022-10-19T14:28:39.865Z,49.64
2022-10-19T14:31:08.496Z,49.78
2022-10-19T14:33:41.677Z,49.80
2022-10-19T14:36:14.637Z,49.69
2022-10-19T14:38:45.188Z,49.04
2022-10-19T14:41:37.890Z,48.28
2022-10-19T14:44:30.344Z,49.70
2022-10-19T14:46:56.921Z,50.22
2022-10-19T14:49:23.350Z,49.55
2022-10-19T14:51:57.290Z,49.33
2022-10-19T14:54:30.711Z,50.84
2022-10-19T14:56:57.218Z,51.23
2022-10-19T14:59:29.474Z,51.42
2022-10-19T15:01:58.054Z,51.66
2022-10-19T15:04:32.592Z,51.96
2022-10-19T15:07:01.872Z,51.82
2022-10-19T15:09:47.721Z,52.97
2022-10-19T15:12:16.969Z,54.92
2022-10-19T15:14:44.118Z,54.15
2022-10-19T15:17:24.913Z,55.15
2022-10-19T15:19:51.753Z,55.89
2022-10-19T15:22:19.786Z,57.48
2022-10-19T15:24:56.911Z,58.16
2022-10-19T15:27:28.947Z,59.14
2022-10-19T15:29:59.331Z,59.73
2022-10-19T15:32:29.958Z,60.57
2022-10-19T15:34:56.400Z,62.63
2022-10-19T15:37:23.824Z,65.29
2022-10-19T15:39:52.409Z,66.19
2022-10-19T15:42:39.130Z,68.47
2022-10-19T15:45:25.583Z,68.55
2022-10-19T15:48:15.363Z,69.29
2022-10-19T15:50:47.839Z,69.11
2022-10-19T15:53:17.052Z,71.52
2022-10-19T15:55:43.804Z,72.41
2022-10-19T15:58:11.202Z,73.17
2022-10-19T16:00:38.086Z,73.94
2022-10-19T16:03:04.525Z,74.79
2022-10-19T16:05:31.273Z,75.00
2022-10-19T16:07:57.771Z,75.91
2022-10-19T16:10:26.058Z,76.06
2022-10-19T16:12:52.888Z,75.79
2022-10-19T16:15:23.641Z,74.62
2022-10-19T16:17:53.017Z,75.09
2022-10-19T16:20:19.931Z,74.74
2022-10-19T16:22:47.213Z,74.07
2022-10-19T16:25:14.204Z,73.67
2022-10-19T16:27:40.727Z,74.29
2022-10-19T16:30:07.493Z,74.96
2022-10-19T16:32:34.048Z,74.40
2022-10-19T16:35:00.584Z,75.46
2022-10-19T16:37:27.474Z,75.43
2022-10-19T16:39:53.896Z,75.34
2022-10-19T16:42:20.590Z,77.54
2022-10-19T16:44:47.099Z,80.63
2022-10-19T16:47:13.894Z,81.41
2022-10-19T16:49:40.357Z,81.55
2022-10-19T16:52:06.771Z,81.33
2022-10-19T16:54:33.280Z,80.63
2022-10-19T16:56:59.766Z,79.23
2022-10-19T16:59:26.198Z,78.89
2022-10-19T17:01:53.739Z,79.54
2022-10-19T17:04:20.466Z,80.31
2022-10-19T17:06:46.981Z,78.69
2022-10-19T17:11:59.899Z,79.20
2022-10-19T17:14:26.383Z,80.09
2022-10-19T17:16:52.869Z,80.72
2022-10-19T17:19:19.344Z,80.13
2022-10-19T17:21:45.753Z,79.68
2022-10-19T17:24:16.963Z,78.77
2022-10-19T17:26:46.741Z,79.08
2022-10-19T17:29:13.681Z,80.26
2022-10-19T17:31:40.573Z,80.62
2022-10-19T17:34:07.517Z,80.52
2022-10-19T17:36:41.732Z,80.71
2022-10-19T17:39:09.170Z,82.45
2022-10-19T17:41:35.626Z,81.08
2022-10-19T17:44:02.894Z,80.38
2022-10-19T17:46:30.392Z,80.64
2022-10-19T17:48:57.455Z,81.69
2022-10-19T17:51:27.127Z,82.40
2022-10-19T17:53:54.657Z,82.01
2022-10-19T17:56:21.692Z,82.04
2022-10-19T17:58:48.732Z,83.87
2022-10-19T18:01:16.626Z,84.63
2022-10-19T18:03:43.386Z,84.39
2022-10-19T18:06:11.887Z,84.13
2022-10-19T18:08:39.996Z,83.76
2022-10-19T18:11:07.921Z,83.66
2022-10-19T18:13:35.079Z,83.59
2022-10-19T18:16:02.390Z,85.39
2022-10-19T18:18:29.679Z,87.17
2022-10-19T18:20:56.197Z,87.65
2022-10-19T18:23:22.629Z,88.10
2022-10-19T18:25:54.300Z,87.52
2022-10-19T18:28:21.098Z,87.75
2022-10-19T18:30:47.580Z,87.63
2022-10-19T18:33:14.078Z,87.35
2022-10-19T18:35:40.657Z,87.31
2022-10-19T18:38:07.327Z,88.50
2022-10-19T18:40:34.767Z,89.21
2022-10-19T18:43:01.248Z,90.64
2022-10-19T18:45:27.674Z,93.04
2022-10-19T18:47:54.099Z,93.00
2022-10-19T18:50:20.563Z,92.68
2022-10-19T18:52:47.024Z,91.60
2022-10-19T18:55:13.509Z,91.06
2022-10-19T18:57:39.945Z,89.98
2022-10-19T19:00:06.748Z,89.48
2022-10-19T19:02:46.596Z,89.79
2022-10-19T19:05:13.794Z,89.81
2022-10-19T19:07:40.234Z,90.67
2022-10-19T19:10:07.087Z,90.84
2022-10-19T19:12:33.899Z,89.77
2022-10-19T19:15:00.683Z,90.34
2022-10-19T19:17:27.454Z,90.46
2022-10-19T19:19:54.209Z,90.72
2022-10-19T19:22:20.891Z,90.06
2022-10-19T19:24:49.477Z,89.46
2022-10-19T19:27:15.930Z,90.50
2022-10-19T19:29:42.342Z,90.27
2022-10-19T19:32:08.770Z,89.63
2022-10-19T19:34:35.665Z,90.66
2022-10-19T19:37:03.296Z,91.38
2022-10-19T19:39:30.673Z,91.18
2022-10-19T19:41:57.159Z,92.03
2022-10-19T19:44:24.994Z,91.84
2022-10-19T19:46:51.439Z,92.30
2022-10-19T19:49:17.905Z,92.48
2022-10-19T19:51:44.350Z,92.05
2022-10-19T19:54:12.001Z,91.79
2022-10-19T19:56:39.287Z,91.97
2022-10-19T19:59:05.811Z,93.00
2022-10-19T20:01:32.493Z,92.53
2022-10-19T20:03:59.503Z,91.28
2022-10-19T20:06:26.270Z,90.42
2022-10-19T20:08:53.172Z,90.95
2022-10-19T20:11:19.794Z,91.45
2022-10-19T20:13:46.282Z,90.94
2022-10-19T20:16:17.820Z,90.19
2022-10-19T20:18:45.303Z,90.51
2022-10-19T20:21:11.895Z,89.30
2022-10-19T20:23:38.646Z,83.76
2022-10-19T20:26:05.227Z,87.28
2022-10-19T20:28:32.754Z,88.09
2022-10-19T20:31:03.529Z,88.39
2022-10-19T20:33:31.412Z,88.19
2022-10-19T20:36:01.901Z,87.78
2022-10-19T20:38:28.378Z,87.65
2022-10-19T20:40:54.893Z,86.76
2022-10-19T20:43:21.321Z,84.92
2022-10-19T20:45:47.931Z,85.73
2022-10-19T20:48:14.391Z,85.50
2022-10-19T20:50:40.942Z,85.73
2022-10-19T20:53:08.721Z,84.82
2022-10-19T20:55:35.202Z,82.50
2022-10-19T20:58:01.637Z,82.07
2022-10-19T21:00:28.061Z,81.87
2022-10-19T21:02:54.707Z,82.07
2022-10-19T21:05:21.186Z,82.63
2022-10-19T21:07:47.639Z,81.57
2022-10-19T21:10:14.147Z,82.07
2022-10-19T21:12:40.587Z,81.47
2022-10-19T21:15:07.250Z,81.10
2022-10-19T21:17:33.734Z,81.01
2022-10-19T21:20:00.206Z,81.25
2022-10-19T21:22:26.690Z,80.54
2022-10-19T21:24:53.176Z,78.34
2022-10-19T21:27:19.589Z,73.80
2022-10-19T21:29:46.060Z,72.23
2022-10-19T21:32:12.469Z,71.21
2022-10-19T21:34:38.932Z,70.08
2022-10-19T21:37:05.373Z,70.60
2022-10-19T21:39:31.819Z,69.46
2022-10-19T21:41:58.525Z,69.34
2022-10-19T21:44:25.024Z,68.57
2022-10-19T21:46:51.677Z,67.50
2022-10-19T21:49:18.563Z,68.81
2022-10-19T21:51:49.716Z,67.70
2022-10-19T21:54:17.766Z,68.76
2022-10-19T21:56:44.792Z,69.08
2022-10-19T21:59:12.158Z,69.27
2022-10-19T22:01:41.217Z,65.15
2022-10-19T22:04:10.749Z,67.03
2022-10-19T22:06:37.155Z,66.75
2022-10-19T22:09:04.955Z,67.56
2022-10-19T22:11:31.482Z,67.40
2022-10-19T22:13:59.261Z,66.00
2022-10-19T22:16:26.417Z,67.21
2022-10-19T22:18:53.406Z,66.62
2022-10-19T22:21:21.784Z,66.27
2022-10-19T22:23:52.694Z,66.44
2022-10-19T22:26:21.754Z,66.66
2022-10-19T22:28:48.341Z,66.80
2022-10-19T22:31:14.865Z,65.96
2022-10-19T22:33:41.284Z,66.26
2022-10-19T22:36:08.798Z,66.07
2022-10-19T22:38:35.369Z,65.24
2022-10-19T22:41:01.897Z,64.96
2022-10-19T22:43:28.358Z,65.02
2022-10-19T22:45:54.761Z,65.41
2022-10-19T22:48:21.173Z,65.15
2022-10-19T22:50:47.682Z,64.75
2022-10-19T22:53:14.160Z,65.75
2022-10-19T22:55:40.665Z,67.02
2022-10-19T22:58:08.357Z,65.81
2022-10-19T23:00:34.910Z,66.78
2022-10-19T23:03:01.451Z,65.95
2022-10-19T23:05:27.938Z,66.63
2022-10-19T23:07:54.398Z,65.06
2022-10-19T23:10:20.839Z,64.67
2022-10-19T23:12:51.359Z,65.43
2022-10-19T23:15:17.949Z,65.28
2022-10-19T23:17:44.421Z,64.59
2022-10-19T23:20:11.514Z,65.47
2022-10-19T23:22:38.178Z,65.96
2022-10-19T23:25:04.847Z,64.68
2022-10-19T23:27:31.306Z,65.18
2022-10-19T23:29:57.723Z,65.04
2022-10-19T23:32:24.166Z,64.02
2022-10-19T23:34:50.588Z,64.92
2022-10-19T23:37:17.039Z,65.27
2022-10-19T23:39:43.666Z,65.51
2022-10-19T23:42:10.121Z,65.55
2022-10-19T23:44:36.563Z,65.56
2022-10-19T23:47:03.021Z,63.90
2022-10-19T23:49:29.451Z,64.68
2022-10-19T23:51:55.889Z,65.12
2022-10-19T23:54:22.397Z,64.96
2022-10-19T23:56:48.837Z,66.04
2022-10-19T23:59:15.258Z,64.59
